sensor_id;sensor_type;location;lat;lon;timestamp;temperature;humidity
25933;DHT22;13731;51.166;4.474;2023-06-14T00:01:24;20.40;1.00
25933;DHT22;13731;51.166;4.474;2023-06-14T00:03:50;20.40;1.00
25933;DHT22;13731;51.166;4.474;2023-06-14T00:06:16;20.40;1.00
25933;DHT22;13731;51.166;4.474;2023-06-14T00:08:42;20.20;1.00
25933;DHT22;13731;51.166;4.474;2023-06-14T00:11:08;20.00;1.00
25933;DHT22;13731;51.166;4.474;2023-06-14T00:13:34;20.00;1.00
25933;DHT22;13731;51.166;4.474;2023-06-14T00:16:00;20.00;1.00
25933;DHT22;13731;51.166;4.474;2023-06-14T00:18:26;20.00;1.00
25933;DHT22;13731;51.166;4.474;2023-06-14T00:20:55;19.80;1.00
25933;DHT22;13731;51.166;4.474;2023-06-14T00:23:21;19.80;1.00
25933;DHT22;13731;51.166;4.474;2023-06-14T00:25:47;19.80;1.00
25933;DHT22;13731;51.166;4.474;2023-06-14T00:28:13;19.90;1.00
25933;DHT22;13731;51.166;4.474;2023-06-14T00:30:39;19.80;1.00
25933;DHT22;13731;51.166;4.474;2023-06-14T00:33:05;19.80;1.00
25933;DHT22;13731;51.166;4.474;2023-06-14T00:35:30;19.80;1.00
25933;DHT22;13731;51.166;4.474;2023-06-14T00:37:56;19.80;1.00
25933;DHT22;13731;51.166;4.474;2023-06-14T00:40:22;19.90;1.00
25933;DHT22;13731;51.166;4.474;2023-06-14T00:42:48;19.80;1.00
25933;DHT22;13731;51.166;4.474;2023-06-14T00:45:13;19.60;1.00
25933;DHT22;13731;51.166;4.474;2023-06-14T00:47:40;19.60;1.00
25933;DHT22;13731;51.166;4.474;2023-06-14T00:50:07;19.60;1.00
25933;DHT22;13731;51.166;4.474;2023-06-14T00:52:33;19.50;1.00
25933;DHT22;13731;51.166;4.474;2023-06-14T00:55:00;19.50;1.00
25933;DHT22;13731;51.166;4.474;2023-06-14T00:57:28;19.50;1.00
25933;DHT22;13731;51.166;4.474;2023-06-14T00:59:57;19.50;1.00
25933;DHT22;13731;51.166;4.474;2023-06-14T01:02:23;19.50;1.00
25933;DHT22;13731;51.166;4.474;2023-06-14T01:04:49;19.50;1.00
25933;DHT22;13731;51.166;4.474;2023-06-14T01:07:25;19.50;1.00
25933;DHT22;13731;51.166;4.474;2023-06-14T01:09:58;19.50;1.00
25933;DHT22;13731;51.166;4.474;2023-06-14T01:12:38;19.40;1.00
25933;DHT22;13731;51.166;4.474;2023-06-14T01:15:06;19.40;1.00
25933;DHT22;13731;51.166;4.474;2023-06-14T01:17:33;19.40;1.00
25933;DHT22;13731;51.166;4.474;2023-06-14T01:20:02;19.50;1.00
25933;DHT22;13731;51.166;4.474;2023-06-14T01:22:29;19.40;1.00
25933;DHT22;13731;51.166;4.474;2023-06-14T01:24:55;19.30;1.00
25933;DHT22;13731;51.166;4.474;2023-06-14T01:27:24;19.10;1.00
25933;DHT22;13731;51.166;4.474;2023-06-14T01:29:54;19.10;1.00
25933;DHT22;13731;51.166;4.474;2023-06-14T01:32:23;19.10;1.00
25933;DHT22;13731;51.166;4.474;2023-06-14T01:34:50;19.10;1.00
25933;DHT22;13731;51.166;4.474;2023-06-14T01:37:15;19.10;1.00
25933;DHT22;13731;51.166;4.474;2023-06-14T01:39:42;19.20;1.00
25933;DHT22;13731;51.166;4.474;2023-06-14T01:42:08;19.10;1.00
25933;DHT22;13731;51.166;4.474;2023-06-14T01:44:36;19.10;1.00
25933;DHT22;13731;51.166;4.474;2023-06-14T01:47:02;19.00;1.00
25933;DHT22;13731;51.166;4.474;2023-06-14T01:49:28;19.10;1.00
25933;DHT22;13731;51.166;4.474;2023-06-14T01:51:54;19.00;1.00
25933;DHT22;13731;51.166;4.474;2023-06-14T01:54:20;19.00;1.00
25933;DHT22;13731;51.166;4.474;2023-06-14T01:56:47;18.80;1.00
25933;DHT22;13731;51.166;4.474;2023-06-14T01:59:13;18.80;1.00
25933;DHT22;13731;51.166;4.474;2023-06-14T02:01:38;18.70;1.00
25933;DHT22;13731;51.166;4.474;2023-06-14T02:04:04;18.60;1.00
25933;DHT22;13731;51.166;4.474;2023-06-14T02:06:30;18.60;1.00
25933;DHT22;13731;51.166;4.474;2023-06-14T02:08:56;18.60;1.00
25933;DHT22;13731;51.166;4.474;2023-06-14T02:11:21;18.60;1.00
25933;DHT22;13731;51.166;4.474;2023-06-14T02:13:49;18.50;1.00
25933;DHT22;13731;51.166;4.474;2023-06-14T02:16:16;18.50;1.00
25933;DHT22;13731;51.166;4.474;2023-06-14T02:18:43;18.50;1.00
25933;DHT22;13731;51.166;4.474;2023-06-14T02:21:08;18.50;1.00
25933;DHT22;13731;51.166;4.474;2023-06-14T02:23:34;18.40;1.00
25933;DHT22;13731;51.166;4.474;2023-06-14T02:26:00;18.50;1.00
25933;DHT22;13731;51.166;4.474;2023-06-14T02:28:26;18.50;1.00
25933;DHT22;13731;51.166;4.474;2023-06-14T02:30:52;18.40;1.00
25933;DHT22;13731;51.166;4.474;2023-06-14T02:33:17;18.40;1.00
25933;DHT22;13731;51.166;4.474;2023-06-14T02:35:43;18.30;1.00
25933;DHT22;13731;51.166;4.474;2023-06-14T02:38:09;18.30;1.00
25933;DHT22;13731;51.166;4.474;2023-06-14T02:40:35;18.30;1.00
25933;DHT22;13731;51.166;4.474;2023-06-14T02:43:00;18.40;1.00
25933;DHT22;13731;51.166;4.474;2023-06-14T02:45:27;18.30;1.00
25933;DHT22;13731;51.166;4.474;2023-06-14T02:47:53;18.40;1.00
25933;DHT22;13731;51.166;4.474;2023-06-14T02:50:21;18.50;1.00
25933;DHT22;13731;51.166;4.474;2023-06-14T02:52:47;18.30;1.00
25933;DHT22;13731;51.166;4.474;2023-06-14T02:55:13;18.40;1.00
25933;DHT22;13731;51.166;4.474;2023-06-14T02:57:39;18.30;1.00
25933;DHT22;13731;51.166;4.474;2023-06-14T03:00:07;18.20;1.00
25933;DHT22;13731;51.166;4.474;2023-06-14T03:02:39;18.30;1.00
25933;DHT22;13731;51.166;4.474;2023-06-14T03:05:06;18.30;1.00
25933;DHT22;13731;51.166;4.474;2023-06-14T03:07:34;18.30;1.00
25933;DHT22;13731;51.166;4.474;2023-06-14T03:10:01;18.20;1.00
25933;DHT22;13731;51.166;4.474;2023-06-14T03:12:28;18.20;1.00
25933;DHT22;13731;51.166;4.474;2023-06-14T03:14:54;18.10;1.00
25933;DHT22;13731;51.166;4.474;2023-06-14T03:17:22;18.00;1.00
25933;DHT22;13731;51.166;4.474;2023-06-14T03:19:50;18.10;1.00
25933;DHT22;13731;51.166;4.474;2023-06-14T03:22:16;18.00;1.00
25933;DHT22;13731;51.166;4.474;2023-06-14T03:24:43;18.00;1.00
25933;DHT22;13731;51.166;4.474;2023-06-14T03:27:13;18.00;1.00
25933;DHT22;13731;51.166;4.474;2023-06-14T03:29:43;18.00;1.00
25933;DHT22;13731;51.166;4.474;2023-06-14T03:32:09;18.00;1.00
25933;DHT22;13731;51.166;4.474;2023-06-14T03:34:41;18.00;1.00
25933;DHT22;13731;51.166;4.474;2023-06-14T03:37:13;17.90;1.00
25933;DHT22;13731;51.166;4.474;2023-06-14T03:39:39;17.90;1.00
25933;DHT22;13731;51.166;4.474;2023-06-14T03:42:14;17.90;1.00
25933;DHT22;13731;51.166;4.474;2023-06-14T03:44:42;17.80;1.00
25933;DHT22;13731;51.166;4.474;2023-06-14T03:47:08;17.80;1.00
25933;DHT22;13731;51.166;4.474;2023-06-14T03:49:34;17.80;1.00
25933;DHT22;13731;51.166;4.474;2023-06-14T03:52:00;17.80;1.00
25933;DHT22;13731;51.166;4.474;2023-06-14T03:54:28;17.80;1.00
25933;DHT22;13731;51.166;4.474;2023-06-14T03:56:55;17.80;1.00
25933;DHT22;13731;51.166;4.474;2023-06-14T03:59:22;17.70;1.00
25933;DHT22;13731;51.166;4.474;2023-06-14T04:01:48;17.60;1.00
25933;DHT22;13731;51.166;4.474;2023-06-14T04:04:15;17.60;1.00
25933;DHT22;13731;51.166;4.474;2023-06-14T04:06:42;17.60;1.00
25933;DHT22;13731;51.166;4.474;2023-06-14T04:09:10;17.60;1.00
25933;DHT22;13731;51.166;4.474;2023-06-14T04:11:35;17.60;1.00
25933;DHT22;13731;51.166;4.474;2023-06-14T04:14:02;17.70;1.00
25933;DHT22;13731;51.166;4.474;2023-06-14T04:16:28;17.70;1.00
25933;DHT22;13731;51.166;4.474;2023-06-14T04:18:55;17.70;1.00
25933;DHT22;13731;51.166;4.474;2023-06-14T04:21:22;17.70;1.00
25933;DHT22;13731;51.166;4.474;2023-06-14T04:23:51;17.70;1.00
25933;DHT22;13731;51.166;4.474;2023-06-14T04:26:21;17.60;1.00
25933;DHT22;13731;51.166;4.474;2023-06-14T04:28:49;17.70;1.00
25933;DHT22;13731;51.166;4.474;2023-06-14T04:31:17;17.70;1.00
25933;DHT22;13731;51.166;4.474;2023-06-14T04:33:44;17.70;1.00
25933;DHT22;13731;51.166;4.474;2023-06-14T04:36:15;17.80;1.00
25933;DHT22;13731;51.166;4.474;2023-06-14T04:38:45;17.80;1.00
25933;DHT22;13731;51.166;4.474;2023-06-14T04:41:12;17.80;1.00
25933;DHT22;13731;51.166;4.474;2023-06-14T04:43:39;17.80;1.00
25933;DHT22;13731;51.166;4.474;2023-06-14T04:46:06;17.80;1.00
25933;DHT22;13731;51.166;4.474;2023-06-14T04:48:40;17.80;1.00
25933;DHT22;13731;51.166;4.474;2023-06-14T04:51:09;17.80;1.00
25933;DHT22;13731;51.166;4.474;2023-06-14T04:53:35;17.90;1.00
25933;DHT22;13731;51.166;4.474;2023-06-14T04:56:01;18.00;1.00
25933;DHT22;13731;51.166;4.474;2023-06-14T04:58:27;18.00;1.00
25933;DHT22;13731;51.166;4.474;2023-06-14T05:00:54;17.90;1.00
25933;DHT22;13731;51.166;4.474;2023-06-14T05:03:21;18.00;1.00
25933;DHT22;13731;51.166;4.474;2023-06-14T05:05:47;18.20;1.00
25933;DHT22;13731;51.166;4.474;2023-06-14T05:08:14;18.20;1.00
25933;DHT22;13731;51.166;4.474;2023-06-14T05:10:39;18.40;1.00
25933;DHT22;13731;51.166;4.474;2023-06-14T05:13:05;18.50;1.00
25933;DHT22;13731;51.166;4.474;2023-06-14T05:15:31;18.60;1.00
25933;DHT22;13731;51.166;4.474;2023-06-14T05:17:57;18.70;1.00
25933;DHT22;13731;51.166;4.474;2023-06-14T05:20:23;18.80;1.00
25933;DHT22;13731;51.166;4.474;2023-06-14T05:22:52;18.90;1.00
25933;DHT22;13731;51.166;4.474;2023-06-14T05:25:19;18.80;1.00
25933;DHT22;13731;51.166;4.474;2023-06-14T05:27:45;18.90;1.00
25933;DHT22;13731;51.166;4.474;2023-06-14T05:30:11;18.90;1.00
25933;DHT22;13731;51.166;4.474;2023-06-14T05:32:36;18.90;1.00
25933;DHT22;13731;51.166;4.474;2023-06-14T05:35:02;18.90;1.00
25933;DHT22;13731;51.166;4.474;2023-06-14T05:37:29;19.00;1.00
25933;DHT22;13731;51.166;4.474;2023-06-14T05:39:55;19.00;1.00
25933;DHT22;13731;51.166;4.474;2023-06-14T05:42:20;19.00;1.00
25933;DHT22;13731;51.166;4.474;2023-06-14T05:44:46;18.90;1.00
25933;DHT22;13731;51.166;4.474;2023-06-14T05:47:12;19.10;1.00
25933;DHT22;13731;51.166;4.474;2023-06-14T05:49:38;19.10;1.00
25933;DHT22;13731;51.166;4.474;2023-06-14T05:52:04;19.10;1.00
25933;DHT22;13731;51.166;4.474;2023-06-14T05:54:30;19.30;1.00
25933;DHT22;13731;51.166;4.474;2023-06-14T05:56:56;19.30;1.00
25933;DHT22;13731;51.166;4.474;2023-06-14T05:59:27;19.20;1.00
25933;DHT22;13731;51.166;4.474;2023-06-14T06:01:53;19.40;1.00
25933;DHT22;13731;51.166;4.474;2023-06-14T06:04:19;19.60;1.00
25933;DHT22;13731;51.166;4.474;2023-06-14T06:06:45;19.70;1.00
25933;DHT22;13731;51.166;4.474;2023-06-14T06:09:12;19.90;1.00
25933;DHT22;13731;51.166;4.474;2023-06-14T06:11:40;20.10;1.00
25933;DHT22;13731;51.166;4.474;2023-06-14T06:14:05;20.00;1.00
25933;DHT22;13731;51.166;4.474;2023-06-14T06:16:32;20.10;1.00
25933;DHT22;13731;51.166;4.474;2023-06-14T06:18:58;20.20;1.00
25933;DHT22;13731;51.166;4.474;2023-06-14T06:21:24;20.40;1.00
25933;DHT22;13731;51.166;4.474;2023-06-14T06:23:50;20.40;1.00
25933;DHT22;13731;51.166;4.474;2023-06-14T06:26:16;20.40;1.00
25933;DHT22;13731;51.166;4.474;2023-06-14T06:28:42;20.60;1.00
25933;DHT22;13731;51.166;4.474;2023-06-14T06:31:08;20.60;1.00
25933;DHT22;13731;51.166;4.474;2023-06-14T06:33:33;20.60;1.00
25933;DHT22;13731;51.166;4.474;2023-06-14T06:35:59;20.70;1.00
25933;DHT22;13731;51.166;4.474;2023-06-14T06:38:25;20.80;1.00
25933;DHT22;13731;51.166;4.474;2023-06-14T06:40:51;20.90;1.00
25933;DHT22;13731;51.166;4.474;2023-06-14T06:43:16;21.00;1.00
25933;DHT22;13731;51.166;4.474;2023-06-14T06:45:46;20.90;1.00
25933;DHT22;13731;51.166;4.474;2023-06-14T06:48:12;21.00;1.00
25933;DHT22;13731;51.166;4.474;2023-06-14T06:50:37;21.10;1.00
25933;DHT22;13731;51.166;4.474;2023-06-14T06:53:04;21.30;1.00
25933;DHT22;13731;51.166;4.474;2023-06-14T06:55:29;21.30;1.00
25933;DHT22;13731;51.166;4.474;2023-06-14T06:57:55;21.40;1.00
25933;DHT22;13731;51.166;4.474;2023-06-14T07:00:21;21.50;1.00
25933;DHT22;13731;51.166;4.474;2023-06-14T07:02:47;21.80;1.00
25933;DHT22;13731;51.166;4.474;2023-06-14T07:05:13;21.90;1.00
25933;DHT22;13731;51.166;4.474;2023-06-14T07:07:39;21.80;1.00
25933;DHT22;13731;51.166;4.474;2023-06-14T07:10:05;21.90;1.00
25933;DHT22;13731;51.166;4.474;2023-06-14T07:12:31;22.00;1.00
25933;DHT22;13731;51.166;4.474;2023-06-14T07:14:59;22.20;1.00
25933;DHT22;13731;51.166;4.474;2023-06-14T07:17:26;22.10;1.00
25933;DHT22;13731;51.166;4.474;2023-06-14T07:19:52;22.00;1.00
25933;DHT22;13731;51.166;4.474;2023-06-14T07:22:19;22.10;1.00
25933;DHT22;13731;51.166;4.474;2023-06-14T07:24:45;22.20;1.00
25933;DHT22;13731;51.166;4.474;2023-06-14T07:27:11;22.30;1.00
25933;DHT22;13731;51.166;4.474;2023-06-14T07:29:38;22.50;1.00
25933;DHT22;13731;51.166;4.474;2023-06-14T07:32:04;22.50;1.00
25933;DHT22;13731;51.166;4.474;2023-06-14T07:34:30;22.60;1.00
25933;DHT22;13731;51.166;4.474;2023-06-14T07:36:56;22.80;1.00
25933;DHT22;13731;51.166;4.474;2023-06-14T07:39:22;22.80;1.00
25933;DHT22;13731;51.166;4.474;2023-06-14T07:41:48;22.90;1.00
25933;DHT22;13731;51.166;4.474;2023-06-14T07:44:14;22.80;1.00
25933;DHT22;13731;51.166;4.474;2023-06-14T07:46:41;22.90;1.00
25933;DHT22;13731;51.166;4.474;2023-06-14T07:49:07;22.90;1.00
25933;DHT22;13731;51.166;4.474;2023-06-14T07:51:33;22.90;1.00
25933;DHT22;13731;51.166;4.474;2023-06-14T07:54:01;23.10;1.00
25933;DHT22;13731;51.166;4.474;2023-06-14T07:56:30;23.10;1.00
25933;DHT22;13731;51.166;4.474;2023-06-14T07:58:56;23.10;1.00
25933;DHT22;13731;51.166;4.474;2023-06-14T08:01:22;23.10;1.00
25933;DHT22;13731;51.166;4.474;2023-06-14T08:03:50;23.20;1.00
25933;DHT22;13731;51.166;4.474;2023-06-14T08:06:16;23.30;1.00
25933;DHT22;13731;51.166;4.474;2023-06-14T08:08:42;23.40;1.00
25933;DHT22;13731;51.166;4.474;2023-06-14T08:11:08;23.40;1.00
25933;DHT22;13731;51.166;4.474;2023-06-14T08:13:34;23.50;1.00
25933;DHT22;13731;51.166;4.474;2023-06-14T08:15:59;23.60;1.00
25933;DHT22;13731;51.166;4.474;2023-06-14T08:18:26;23.80;1.00
25933;DHT22;13731;51.166;4.474;2023-06-14T08:20:52;24.00;1.00
25933;DHT22;13731;51.166;4.474;2023-06-14T08:23:19;23.80;1.00
25933;DHT22;13731;51.166;4.474;2023-06-14T08:25:46;23.70;1.00
25933;DHT22;13731;51.166;4.474;2023-06-14T08:28:12;23.80;1.00
25933;DHT22;13731;51.166;4.474;2023-06-14T08:30:38;23.80;1.00
25933;DHT22;13731;51.166;4.474;2023-06-14T08:33:04;24.00;1.00
25933;DHT22;13731;51.166;4.474;2023-06-14T08:35:30;24.10;1.00
25933;DHT22;13731;51.166;4.474;2023-06-14T08:37:55;24.20;1.00
25933;DHT22;13731;51.166;4.474;2023-06-14T08:40:22;24.20;1.00
25933;DHT22;13731;51.166;4.474;2023-06-14T08:42:50;24.20;1.00
25933;DHT22;13731;51.166;4.474;2023-06-14T08:45:16;24.20;1.00
25933;DHT22;13731;51.166;4.474;2023-06-14T08:47:42;24.20;1.00
25933;DHT22;13731;51.166;4.474;2023-06-14T08:50:08;24.30;1.00
25933;DHT22;13731;51.166;4.474;2023-06-14T08:52:36;24.30;1.00
25933;DHT22;13731;51.166;4.474;2023-06-14T08:55:06;24.20;1.00
25933;DHT22;13731;51.166;4.474;2023-06-14T08:57:32;24.20;1.00
25933;DHT22;13731;51.166;4.474;2023-06-14T08:59:58;24.30;1.00
25933;DHT22;13731;51.166;4.474;2023-06-14T09:02:26;24.40;1.00
25933;DHT22;13731;51.166;4.474;2023-06-14T09:04:52;24.60;1.00
25933;DHT22;13731;51.166;4.474;2023-06-14T09:07:18;24.70;1.00
25933;DHT22;13731;51.166;4.474;2023-06-14T09:09:44;24.90;1.00
25933;DHT22;13731;51.166;4.474;2023-06-14T09:12:10;25.00;1.00
25933;DHT22;13731;51.166;4.474;2023-06-14T09:14:36;25.10;1.00
25933;DHT22;13731;51.166;4.474;2023-06-14T09:17:05;25.10;1.00
25933;DHT22;13731;51.166;4.474;2023-06-14T09:19:31;25.30;1.00
25933;DHT22;13731;51.166;4.474;2023-06-14T09:21:56;25.40;1.00
25933;DHT22;13731;51.166;4.474;2023-06-14T09:24:26;25.40;1.00
25933;DHT22;13731;51.166;4.474;2023-06-14T09:26:52;25.50;1.00
25933;DHT22;13731;51.166;4.474;2023-06-14T09:29:18;25.40;1.00
25933;DHT22;13731;51.166;4.474;2023-06-14T09:31:47;25.60;1.00
25933;DHT22;13731;51.166;4.474;2023-06-14T09:34:13;25.70;1.00
25933;DHT22;13731;51.166;4.474;2023-06-14T09:36:39;25.80;1.00
25933;DHT22;13731;51.166;4.474;2023-06-14T09:39:05;25.70;1.00
25933;DHT22;13731;51.166;4.474;2023-06-14T09:41:37;25.80;1.00
25933;DHT22;13731;51.166;4.474;2023-06-14T09:44:04;25.80;1.00
25933;DHT22;13731;51.166;4.474;2023-06-14T09:46:30;26.20;1.00
25933;DHT22;13731;51.166;4.474;2023-06-14T09:48:56;26.30;1.00
25933;DHT22;13731;51.166;4.474;2023-06-14T09:51:22;26.50;1.00
25933;DHT22;13731;51.166;4.474;2023-06-14T09:53:48;26.70;1.00
25933;DHT22;13731;51.166;4.474;2023-06-14T09:56:27;26.70;1.00
25933;DHT22;13731;51.166;4.474;2023-06-14T09:58:54;26.60;1.00
25933;DHT22;13731;51.166;4.474;2023-06-14T10:01:23;26.60;1.00
25933;DHT22;13731;51.166;4.474;2023-06-14T10:03:49;26.90;1.00
25933;DHT22;13731;51.166;4.474;2023-06-14T10:06:16;26.90;1.00
25933;DHT22;13731;51.166;4.474;2023-06-14T10:08:42;27.00;1.00
25933;DHT22;13731;51.166;4.474;2023-06-14T10:11:09;27.40;1.00
25933;DHT22;13731;51.166;4.474;2023-06-14T10:13:35;28.60;1.00
25933;DHT22;13731;51.166;4.474;2023-06-14T10:19:24;29.90;1.00
25933;DHT22;13731;51.166;4.474;2023-06-14T10:22:04;31.00;1.00
25933;DHT22;13731;51.166;4.474;2023-06-14T10:24:39;30.70;1.00
25933;DHT22;13731;51.166;4.474;2023-06-14T10:27:06;30.90;1.00
25933;DHT22;13731;51.166;4.474;2023-06-14T10:32:31;32.20;1.00
25933;DHT22;13731;51.166;4.474;2023-06-14T10:35:00;32.40;1.00
25933;DHT22;13731;51.166;4.474;2023-06-14T10:37:26;33.00;1.00
25933;DHT22;13731;51.166;4.474;2023-06-14T10:39:52;33.30;1.00
25933;DHT22;13731;51.166;4.474;2023-06-14T10:42:19;33.80;1.00
25933;DHT22;13731;51.166;4.474;2023-06-14T10:44:45;32.50;1.00
25933;DHT22;13731;51.166;4.474;2023-06-14T10:49:49;32.60;1.00
25933;DHT22;13731;51.166;4.474;2023-06-14T10:52:16;32.60;1.00
25933;DHT22;13731;51.166;4.474;2023-06-14T10:57:27;33.90;1.00
25933;DHT22;13731;51.166;4.474;2023-06-14T10:59:52;35.00;1.00
25933;DHT22;13731;51.166;4.474;2023-06-14T11:04:48;34.10;1.00
25933;DHT22;13731;51.166;4.474;2023-06-14T11:12:44;33.80;1.00
25933;DHT22;13731;51.166;4.474;2023-06-14T11:15:12;35.00;1.00
25933;DHT22;13731;51.166;4.474;2023-06-14T11:17:38;35.60;1.00
25933;DHT22;13731;51.166;4.474;2023-06-14T11:20:12;37.00;1.00
25933;DHT22;13731;51.166;4.474;2023-06-14T11:22:41;37.00;1.00
25933;DHT22;13731;51.166;4.474;2023-06-14T11:25:13;37.00;1.00
25933;DHT22;13731;51.166;4.474;2023-06-14T11:27:41;36.00;1.00
25933;DHT22;13731;51.166;4.474;2023-06-14T11:30:07;34.80;1.00
25933;DHT22;13731;51.166;4.474;2023-06-14T11:32:33;35.20;1.00
25933;DHT22;13731;51.166;4.474;2023-06-14T11:34:59;36.20;1.00
25933;DHT22;13731;51.166;4.474;2023-06-14T11:37:25;35.90;1.00
25933;DHT22;13731;51.166;4.474;2023-06-14T11:39:51;35.60;1.00
25933;DHT22;13731;51.166;4.474;2023-06-14T11:42:17;36.00;1.00
25933;DHT22;13731;51.166;4.474;2023-06-14T11:44:46;36.00;1.00
25933;DHT22;13731;51.166;4.474;2023-06-14T11:47:12;36.40;1.00
25933;DHT22;13731;51.166;4.474;2023-06-14T11:49:38;36.80;1.00
25933;DHT22;13731;51.166;4.474;2023-06-14T11:52:04;38.00;1.00
25933;DHT22;13731;51.166;4.474;2023-06-14T11:54:31;37.30;1.00
25933;DHT22;13731;51.166;4.474;2023-06-14T11:56:57;35.30;1.00
25933;DHT22;13731;51.166;4.474;2023-06-14T11:59:23;35.50;1.00
25933;DHT22;13731;51.166;4.474;2023-06-14T12:01:49;36.60;1.00
25933;DHT22;13731;51.166;4.474;2023-06-14T12:04:22;37.90;1.00
25933;DHT22;13731;51.166;4.474;2023-06-14T12:06:48;37.50;1.00
25933;DHT22;13731;51.166;4.474;2023-06-14T12:09:15;36.60;1.00
25933;DHT22;13731;51.166;4.474;2023-06-14T12:11:43;38.40;1.00
25933;DHT22;13731;51.166;4.474;2023-06-14T12:14:09;39.30;1.00
25933;DHT22;13731;51.166;4.474;2023-06-14T12:16:37;37.10;1.00
25933;DHT22;13731;51.166;4.474;2023-06-14T12:19:11;37.60;1.00
25933;DHT22;13731;51.166;4.474;2023-06-14T12:21:38;38.70;1.00
25933;DHT22;13731;51.166;4.474;2023-06-14T12:24:07;38.80;1.00
25933;DHT22;13731;51.166;4.474;2023-06-14T12:26:33;37.30;1.00
25933;DHT22;13731;51.166;4.474;2023-06-14T12:28:58;35.60;1.00
25933;DHT22;13731;51.166;4.474;2023-06-14T12:31:25;36.40;1.00
25933;DHT22;13731;51.166;4.474;2023-06-14T12:33:51;37.30;1.00
25933;DHT22;13731;51.166;4.474;2023-06-14T12:36:16;36.70;1.00
25933;DHT22;13731;51.166;4.474;2023-06-14T12:38:42;36.80;1.00
25933;DHT22;13731;51.166;4.474;2023-06-14T12:41:08;36.60;1.00
25933;DHT22;13731;51.166;4.474;2023-06-14T12:43:34;37.20;1.00
25933;DHT22;13731;51.166;4.474;2023-06-14T12:46:00;36.50;1.00
25933;DHT22;13731;51.166;4.474;2023-06-14T12:48:26;36.70;1.00
25933;DHT22;13731;51.166;4.474;2023-06-14T12:50:56;37.90;1.00
25933;DHT22;13731;51.166;4.474;2023-06-14T12:53:23;38.00;1.00
25933;DHT22;13731;51.166;4.474;2023-06-14T12:55:49;37.00;1.00
25933;DHT22;13731;51.166;4.474;2023-06-14T12:58:14;37.70;1.00
25933;DHT22;13731;51.166;4.474;2023-06-14T13:00:42;37.70;1.00
25933;DHT22;13731;51.166;4.474;2023-06-14T13:03:10;36.90;1.00
25933;DHT22;13731;51.166;4.474;2023-06-14T13:05:36;36.60;1.00
25933;DHT22;13731;51.166;4.474;2023-06-14T13:08:02;37.50;1.00
25933;DHT22;13731;51.166;4.474;2023-06-14T13:10:28;38.00;1.00
25933;DHT22;13731;51.166;4.474;2023-06-14T13:12:54;38.00;1.00
25933;DHT22;13731;51.166;4.474;2023-06-14T13:15:20;37.40;1.00
25933;DHT22;13731;51.166;4.474;2023-06-14T13:17:45;37.50;1.00
25933;DHT22;13731;51.166;4.474;2023-06-14T13:20:14;38.20;1.00
25933;DHT22;13731;51.166;4.474;2023-06-14T13:22:41;37.90;1.00
25933;DHT22;13731;51.166;4.474;2023-06-14T13:25:07;37.90;1.00
25933;DHT22;13731;51.166;4.474;2023-06-14T13:27:32;38.00;1.00
25933;DHT22;13731;51.166;4.474;2023-06-14T13:29:58;37.30;1.00
25933;DHT22;13731;51.166;4.474;2023-06-14T13:32:24;36.80;1.00
25933;DHT22;13731;51.166;4.474;2023-06-14T13:34:50;36.50;1.00
25933;DHT22;13731;51.166;4.474;2023-06-14T13:37:16;35.90;1.00
25933;DHT22;13731;51.166;4.474;2023-06-14T13:39:42;36.70;1.00
25933;DHT22;13731;51.166;4.474;2023-06-14T13:42:08;37.10;1.00
25933;DHT22;13731;51.166;4.474;2023-06-14T13:44:33;38.80;1.00
25933;DHT22;13731;51.166;4.474;2023-06-14T13:47:00;38.90;1.00
25933;DHT22;13731;51.166;4.474;2023-06-14T13:49:25;38.70;1.00
25933;DHT22;13731;51.166;4.474;2023-06-14T13:51:51;38.40;1.00
25933;DHT22;13731;51.166;4.474;2023-06-14T13:54:19;38.70;1.00
25933;DHT22;13731;51.166;4.474;2023-06-14T13:56:45;39.20;1.00
25933;DHT22;13731;51.166;4.474;2023-06-14T13:59:11;37.90;1.00
25933;DHT22;13731;51.166;4.474;2023-06-14T14:01:37;39.10;1.00
25933;DHT22;13731;51.166;4.474;2023-06-14T14:04:04;38.20;1.00
25933;DHT22;13731;51.166;4.474;2023-06-14T14:06:30;37.50;1.00
25933;DHT22;13731;51.166;4.474;2023-06-14T14:08:56;36.60;1.00
25933;DHT22;13731;51.166;4.474;2023-06-14T14:11:22;36.40;1.00
25933;DHT22;13731;51.166;4.474;2023-06-14T14:13:48;37.80;1.00
25933;DHT22;13731;51.166;4.474;2023-06-14T14:16:14;37.90;1.00
25933;DHT22;13731;51.166;4.474;2023-06-14T14:18:40;37.80;1.00
25933;DHT22;13731;51.166;4.474;2023-06-14T14:21:05;39.50;1.00
25933;DHT22;13731;51.166;4.474;2023-06-14T14:23:31;40.80;1.00
25933;DHT22;13731;51.166;4.474;2023-06-14T14:25:57;41.00;1.00
25933;DHT22;13731;51.166;4.474;2023-06-14T14:28:23;40.60;1.00
25933;DHT22;13731;51.166;4.474;2023-06-14T14:30:48;40.80;1.00
25933;DHT22;13731;51.166;4.474;2023-06-14T14:33:15;39.20;1.00
25933;DHT22;13731;51.166;4.474;2023-06-14T14:35:44;39.90;1.00
25933;DHT22;13731;51.166;4.474;2023-06-14T14:38:11;40.60;1.00
25933;DHT22;13731;51.166;4.474;2023-06-14T14:40:37;40.60;1.00
25933;DHT22;13731;51.166;4.474;2023-06-14T14:43:03;40.50;1.00
25933;DHT22;13731;51.166;4.474;2023-06-14T14:45:28;38.80;1.00
25933;DHT22;13731;51.166;4.474;2023-06-14T14:47:54;37.90;1.00
25933;DHT22;13731;51.166;4.474;2023-06-14T14:50:20;38.50;1.00
25933;DHT22;13731;51.166;4.474;2023-06-14T14:52:46;38.20;1.00
25933;DHT22;13731;51.166;4.474;2023-06-14T14:55:11;38.20;1.00
25933;DHT22;13731;51.166;4.474;2023-06-14T14:57:37;38.80;1.00
25933;DHT22;13731;51.166;4.474;2023-06-14T15:00:03;38.40;1.00
25933;DHT22;13731;51.166;4.474;2023-06-14T15:02:31;37.90;1.00
25933;DHT22;13731;51.166;4.474;2023-06-14T15:04:57;39.10;1.00
25933;DHT22;13731;51.166;4.474;2023-06-14T15:07:26;38.00;1.00
25933;DHT22;13731;51.166;4.474;2023-06-14T15:09:53;39.40;1.00
25933;DHT22;13731;51.166;4.474;2023-06-14T15:12:19;38.40;1.00
25933;DHT22;13731;51.166;4.474;2023-06-14T15:14:51;39.30;1.00
25933;DHT22;13731;51.166;4.474;2023-06-14T15:17:17;37.90;1.00
25933;DHT22;13731;51.166;4.474;2023-06-14T15:19:44;38.10;1.00
25933;DHT22;13731;51.166;4.474;2023-06-14T15:22:10;36.20;1.00
25933;DHT22;13731;51.166;4.474;2023-06-14T15:24:36;37.90;1.00
25933;DHT22;13731;51.166;4.474;2023-06-14T15:27:02;37.60;1.00
25933;DHT22;13731;51.166;4.474;2023-06-14T15:29:28;37.40;1.00
25933;DHT22;13731;51.166;4.474;2023-06-14T15:31:54;36.60;1.00
25933;DHT22;13731;51.166;4.474;2023-06-14T15:34:20;37.30;1.00
25933;DHT22;13731;51.166;4.474;2023-06-14T15:36:46;37.70;1.00
25933;DHT22;13731;51.166;4.474;2023-06-14T15:39:12;38.60;1.00
25933;DHT22;13731;51.166;4.474;2023-06-14T15:41:38;38.60;1.00
25933;DHT22;13731;51.166;4.474;2023-06-14T15:44:03;37.10;1.00
25933;DHT22;13731;51.166;4.474;2023-06-14T15:46:29;35.80;1.00
25933;DHT22;13731;51.166;4.474;2023-06-14T15:48:55;34.90;1.00
25933;DHT22;13731;51.166;4.474;2023-06-14T15:51:21;35.50;1.00
25933;DHT22;13731;51.166;4.474;2023-06-14T15:53:47;35.50;1.00
25933;DHT22;13731;51.166;4.474;2023-06-14T15:56:12;36.00;1.00
25933;DHT22;13731;51.166;4.474;2023-06-14T15:58:38;35.50;1.00
25933;DHT22;13731;51.166;4.474;2023-06-14T16:01:04;36.20;1.00